Latest Weather Observations for Ouse

IDT60801

Issued at 5:35 pm EST Friday 25 April 2014 (issued every 30 minutes, with the page automatically refreshed every 10 minutes)

About weather observations | Map of weather stations | Latest weather observations for TAS | Other Formats
Station Details ID: 095048 Name: OUSE FIRE STATION Lat: -42.48 Lon: 146.71 Height: 90.0 m
Data from the previous 72 hours. | See also: Recent months at Ouse
Date/Time
EST
Temp
°C
App
Temp
°C
Dew
Point
Rel
Hum
%
Delta-T
°C
Wind Press
QNH
hPa
Press
MSL
hPa
Rain
since 9 am
mm
Dir
 
Spd
km/h
Gust
km/h
Spd
kts
Gust
kts
25/05:30pm 12.0 8.7 4.5 60 3.4 NNW 11 15 6 8 1011.0 - 0.0
25/05:00pm 13.4 9.4 4.8 56 4.0 NNW 15 24 8 13 1011.2 - 0.0
25/04:30pm 14.1 9.7 4.9 54 4.3 NNW 17 24 9 13 1011.4 - 0.0
25/04:00pm 15.1 11.6 5.6 53 4.5 NNW 13 22 7 12 1011.4 - 0.0
25/03:30pm 14.6 11.1 5.4 54 4.4 NNW 13 20 7 11 1011.8 - 0.0
25/03:00pm 15.1 11.5 5.0 51 4.8 N 13 24 7 13 1012.3 1012.3 0.0
25/02:30pm 16.1 12.9 5.1 48 5.2 WNW 11 22 6 12 1012.7 - 0.0
25/02:00pm 15.7 12.1 5.0 49 5.1 N 13 22 7 12 1013.3 - 0.0
25/01:30pm 14.4 11.7 5.5 55 4.2 WNW 9 17 5 9 1013.7 - 0.0
25/01:00pm 15.3 11.6 6.3 55 4.4 W 15 20 8 11 1014.3 - 0.0
25/12:30pm 14.1 9.9 5.5 56 4.1 WNW 17 24 9 13 1015.0 - 0.0
25/12:00pm 13.2 8.9 5.1 58 3.8 WNW 17 24 9 13 1016.0 1016.1 0.0
25/11:30am 12.7 8.2 4.2 56 3.9 NNW 17 26 9 14 1016.5 - 0.0
25/11:00am 12.4 7.6 4.9 60 3.5 NW 19 22 10 12 1017.2 - 0.0
25/10:30am 11.4 10.8 7.3 76 2.0 CALM 0 7 0 4 1017.7 - 0.0
25/10:00am 7.8 6.8 5.6 86 1.0 CALM 0 0 0 0 1018.2 - 0.0
25/09:30am 6.3 5.0 4.3 87 0.9 CALM 0 6 0 3 1018.6 - 0.0
25/09:00am 5.3 3.9 3.5 88 0.8 CALM 0 0 0 0 1019.2 1019.2 2.4
25/08:30am 4.6 2.2 2.3 85 0.9 N 4 7 2 4 1019.2 - 2.4
25/08:00am 3.7 1.4 2.5 92 0.5 N 4 9 2 5 1019.1 - 2.4
25/07:30am 1.8 0.0 1.2 96 0.2 CALM 0 4 0 2 1019.2 - 2.4
25/07:00am 1.6 -1.4 0.7 94 0.3 N 6 9 3 5 1018.8 - 2.4
25/06:30am 2.0 -1.1 1.6 97 0.2 N 7 9 4 5 1018.9 - 2.4
25/06:00am 1.8 0.0 1.1 95 0.3 CALM 0 0 0 0 1019.1 1019.1 2.4
25/05:30am 1.8 -1.7 1.1 95 0.3 N 9 13 5 7 1018.9 - 2.4
25/05:00am 2.1 -1.5 0.9 92 0.5 N 9 11 5 6 1018.9 - 2.4
25/04:30am 3.2 -0.2 1.7 90 0.6 N 9 11 5 6 1019.0 - 2.4
25/04:00am 3.3 -0.4 2.6 95 0.3 N 11 13 6 7 1018.7 - 2.4
25/03:30am 2.1 -1.3 1.7 97 0.2 N 9 11 5 6 1018.7 - 2.4
25/03:00am 1.9 -0.3 1.0 94 0.3 NNW 2 6 1 3 1018.7 1018.7 2.4
25/02:30am 1.9 -1.1 0.9 93 0.4 NNW 6 9 3 5 1018.8 - 2.4
25/02:00am 2.1 -1.9 0.6 90 0.6 N 11 15 6 8 1019.0 - 2.4
25/01:30am 3.0 -0.1 1.2 88 0.7 NNW 7 11 4 6 1019.0 - 2.4
25/01:00am 4.2 0.0 1.4 82 1.1 NNW 13 20 7 11 1018.9 - 2.4
25/12:30am 3.7 -0.2 1.3 84 0.9 N 11 15 6 8 1018.9 - 2.4
25/12:00am 4.4 0.5 1.4 81 1.2 N 11 15 6 8 1018.9 1018.9 2.4
 
Date/Time
EST
Temp
°C
App
Temp
°C
Dew
Point
Rel
Hum
%
Delta-T
°C
Wind Press
QNH
hPa
Press
MSL
hPa
Rain
since 9 am
mm
Dir
 
Spd
km/h
Gust
km/h
Spd
kts
Gust
kts
24/11:30pm 5.3 1.5 2.0 79 1.3 N 11 17 6 9 1018.8 - 2.4
24/11:00pm 4.9 1.2 2.1 82 1.1 NNW 11 17 6 9 1018.6 - 2.4
24/10:30pm 5.1 1.7 2.1 81 1.2 N 9 15 5 8 1018.5 - 2.4
24/10:00pm 6.2 2.5 2.5 77 1.5 N 11 15 6 8 1018.5 - 2.4
24/09:30pm 7.0 2.3 2.9 75 1.7 NW 17 24 9 13 1018.2 - 2.4
24/09:00pm 5.0 1.4 3.0 87 0.8 N 11 17 6 9 1017.8 1017.8 2.4
24/08:30pm 5.2 1.9 2.6 83 1.1 NNW 9 13 5 7 1017.3 - 2.4
24/08:00pm 5.6 1.9 2.4 80 1.3 N 11 15 6 8 1016.6 - 2.4
24/07:30pm 6.1 2.4 2.6 78 1.4 N 11 15 6 8 1016.1 - 2.4
24/07:00pm 7.2 2.3 2.3 71 2.0 NNW 17 26 9 14 1015.4 - 2.4
24/06:30pm 7.4 2.9 2.1 69 2.2 NW 15 22 8 12 1014.9 - 2.4
24/06:00pm 8.2 3.0 2.2 66 2.5 WNW 19 32 10 17 1014.3 1014.4 2.4
24/05:30pm 8.3 3.8 1.9 64 2.7 NW 15 28 8 15 1013.5 - 2.4
24/05:00pm 8.7 4.2 2.1 63 2.8 N 15 20 8 11 1013.1 - 2.4
24/04:30pm 9.4 5.8 2.7 63 2.9 NW 11 20 6 11 1012.7 - 2.4
24/04:00pm 9.4 4.6 2.7 63 2.9 NW 17 28 9 15 1011.9 - 2.4
24/03:30pm 9.6 5.3 3.4 65 2.7 WNW 15 28 8 15 1011.8 - 2.4
24/03:00pm 9.7 5.7 3.0 63 2.9 W 13 28 7 15 1011.4 1011.4 2.4
24/02:30pm 9.6 5.0 3.6 66 2.6 WNW 17 26 9 14 1010.6 - 2.4
24/02:00pm 8.6 1.2 2.0 63 2.8 W 30 50 16 27 1010.6 - 2.4
24/01:58pm 9.0 2.1 2.6 64 2.7 W 28 50 15 27 1010.5 - 2.4
24/01:33pm 9.1 4.4 2.9 65 2.7 WNW 17 57 9 31 1009.6 - 2.4
24/01:31pm 9.3 0.7 2.6 63 2.9 W 37 57 20 31 1009.5 - 2.4
24/01:30pm 9.6 0.3 2.7 62 3.0 W 41 57 22 31 1009.7 - 2.4
24/01:00pm 7.7 2.8 3.9 77 1.6 WNW 19 54 10 29 1008.9 - 2.4
24/12:59pm 7.7 2.8 4.1 78 1.6 WNW 19 61 10 33 1008.9 - 2.4
24/12:47pm 9.9 0.6 3.0 62 3.0 WSW 41 67 22 36 1009.1 - 2.0
24/12:30pm 9.9 5.3 5.7 75 1.9 WNW 19 41 10 22 1008.1 - 2.0
24/12:00pm 8.3 2.5 4.5 77 1.7 W 24 46 13 25 1008.7 1008.7 1.8
24/11:54am 9.0 2.3 3.6 69 2.3 W 28 46 15 25 1008.6 - 1.6
24/11:53am 9.1 1.6 3.5 68 2.4 W 32 46 17 25 1008.5 - 1.6
24/11:30am 8.4 3.9 4.4 76 1.8 NNW 17 28 9 15 1007.9 - 1.6
24/11:01am 7.7 1.0 3.7 76 1.7 W 28 46 15 25 1008.5 - 1.6
24/11:00am 7.7 1.6 4.7 81 1.3 W 26 41 14 22 1008.5 - 1.6
24/10:30am 8.2 4.8 5.7 84 1.1 WNW 13 24 7 13 1007.4 - 1.2
24/10:00am 7.5 3.4 4.6 82 1.3 WNW 15 37 8 20 1006.7 - 1.0
24/09:30am 9.8 5.1 5.2 73 2.1 WNW 19 32 10 17 1005.8 - 0.0
24/09:00am 8.9 5.1 5.8 81 1.4 WSW 15 24 8 13 1005.3 1005.3 4.2
24/08:30am 8.6 5.9 7.2 91 0.7 N 11 15 6 8 1004.3 - 4.2
24/08:00am 7.1 4.2 6.5 96 0.3 NNE 11 13 6 7 1003.8 - 4.2
24/07:30am 6.2 2.7 5.6 96 0.3 N 13 17 7 9 1002.5 - 4.0
24/07:00am 6.9 3.5 5.8 93 0.5 N 13 19 7 10 1001.7 - 4.0
24/06:30am 6.8 4.2 5.9 94 0.4 N 9 13 5 7 1001.2 - 4.0
24/06:00am 7.4 4.5 6.3 93 0.5 N 11 15 6 8 1001.3 1001.3 4.0
24/05:30am 7.9 5.3 6.0 88 0.9 N 9 15 5 8 1002.1 - 3.8
24/05:00am 8.3 5.0 6.4 88 0.9 NNW 13 22 7 12 1002.3 - 3.8
24/04:30am 9.3 5.3 6.7 84 1.2 NW 17 28 9 15 1001.6 - 3.0
24/04:00am 10.1 6.1 8.2 88 0.9 WNW 19 30 10 16 1000.8 - 1.8
24/03:52am 10.6 6.1 8.5 87 1.0 W 22 39 12 21 1000.3 - 1.4
24/03:30am 7.5 5.6 7.4 99 0.0 N 7 9 4 5 998.3 - 0.0
24/03:00am 6.9 5.4 6.6 98 0.1 ESE 4 7 2 4 998.8 998.8 0.0
24/02:30am 6.3 3.7 5.9 97 0.2 NNW 9 11 5 6 999.7 - 0.0
24/02:00am 6.4 3.7 5.8 96 0.3 N 9 13 5 7 1000.7 - 0.0
24/01:30am 6.7 3.8 6.4 98 0.1 N 11 17 6 9 1001.6 - 0.0
24/01:00am 5.8 3.4 5.4 97 0.2 N 7 11 4 6 1002.9 - 0.0
24/12:30am 5.7 4.6 5.1 96 0.3 CALM 0 0 0 0 1003.3 - 0.0
24/12:00am 5.8 3.4 5.1 95 0.3 S 7 9 4 5 1003.8 1003.9 0.0
 
Date/Time
EST
Temp
°C
App
Temp
°C
Dew
Point
Rel
Hum
%
Delta-T
°C
Wind Press
QNH
hPa
Press
MSL
hPa
Rain
since 9 am
mm
Dir
 
Spd
km/h
Gust
km/h
Spd
kts
Gust
kts
23/11:30pm 6.1 4.6 5.2 94 0.4 WNW 2 7 1 4 1004.2 - 0.0
23/11:00pm 6.3 4.0 5.6 95 0.3 N 7 13 4 7 1004.9 - 0.0
23/10:30pm 6.0 3.8 5.3 95 0.3 NW 6 9 3 5 1005.4 - 0.0
23/10:00pm 5.9 4.1 5.2 95 0.3 NNW 4 7 2 4 1005.9 - 0.0
23/09:30pm 5.7 3.2 4.5 92 0.5 NNW 7 11 4 6 1006.4 - 0.0
23/09:00pm 6.8 4.4 5.4 91 0.6 N 7 11 4 6 1006.9 1006.9 0.0
23/08:30pm 6.8 4.1 5.6 92 0.5 NNW 9 11 5 6 1007.2 - 0.0
23/08:00pm 7.2 4.8 5.3 88 0.8 N 7 11 4 6 1007.4 - 0.0
23/07:30pm 8.0 5.0 6.0 87 0.9 N 11 15 6 8 1007.7 - 0.0
23/07:00pm 8.3 5.7 5.9 85 1.1 N 9 13 5 7 1007.8 - 0.0
23/06:30pm 9.5 6.5 6.2 80 1.5 N 11 13 6 7 1007.8 - 0.0
23/06:00pm 9.8 7.2 6.3 79 1.6 N 9 15 5 8 1007.8 1007.8 0.0
23/05:30pm 11.2 9.1 6.5 73 2.2 N 7 11 4 6 1008.0 - 0.0
23/05:00pm 14.0 12.0 7.1 63 3.4 NNW 7 11 4 6 1008.1 - 0.0
23/04:30pm 14.5 12.0 6.6 59 3.8 NNW 9 13 5 7 1008.3 - 0.0
23/04:00pm 15.8 12.7 5.7 51 4.9 N 11 19 6 10 1008.6 - 0.0
23/03:30pm 15.5 11.9 4.8 49 5.0 N 13 20 7 11 1008.8 - 0.0
23/03:00pm 15.6 10.8 4.6 48 5.2 NNW 19 30 10 16 1009.1 1009.1 0.0
23/02:30pm 16.0 10.9 4.1 45 5.6 NNW 20 30 11 16 1009.4 - 0.0
23/02:00pm 16.0 12.3 6.4 53 4.7 NW 15 22 8 12 1009.9 - 0.0
23/01:30pm 15.8 12.6 6.8 55 4.4 NW 13 20 7 11 1010.4 - 0.0
23/01:00pm 15.5 12.0 7.0 57 4.2 WNW 15 22 8 12 1010.8 - 0.0
23/12:30pm 15.8 11.5 6.8 55 4.4 WNW 19 26 10 14 1011.1 - 0.0
23/12:00pm 15.5 12.7 6.8 56 4.3 NW 11 17 6 9 1011.5 1011.5 0.0
23/11:30am 15.6 12.0 6.9 56 4.3 WNW 15 22 8 12 1011.8 - 0.0
23/11:00am 15.5 12.3 6.8 56 4.3 NW 13 19 7 10 1012.1 - 0.0
23/10:30am 14.4 11.5 6.7 60 3.7 N 11 19 6 10 1012.6 - 0.0
23/10:00am 14.1 11.2 6.7 61 3.6 N 11 15 6 8 1013.0 - 0.0
23/09:30am 13.4 11.2 7.8 69 2.8 N 9 13 5 7 1013.5 - 0.0
23/09:00am 12.1 10.1 8.6 79 1.7 NNE 9 13 5 7 1013.8 1013.9 0.0
23/08:30am 10.0 8.4 8.1 88 0.9 N 6 9 3 5 1014.0 - 0.0
23/08:00am 8.8 8.3 8.0 95 0.4 CALM 0 0 0 0 1014.2 - 0.0
23/07:30am 8.2 7.6 7.6 96 0.3 CALM 0 0 0 0 1014.0 - 0.0
23/07:00am 8.1 6.3 7.2 94 0.4 NW 6 7 3 4 1013.9 - 0.0
23/06:30am 8.0 6.0 6.9 93 0.5 N 7 9 4 5 1013.8 - 0.0
23/06:00am 8.7 5.7 7.5 92 0.6 N 13 19 7 10 1013.9 1014.0 0.0
23/05:30am 8.3 5.5 7.1 92 0.6 N 11 15 6 8 1013.8 - 0.0
23/05:00am 9.4 6.5 8.2 92 0.6 N 13 17 7 9 1013.9 - 0.0
23/04:30am 9.1 6.9 7.7 91 0.7 NNW 9 13 5 7 1013.9 - 0.0
23/04:00am 9.3 7.0 7.4 88 0.9 NNW 9 15 5 8 1013.7 - 0.0
23/03:30am 8.7 6.7 7.3 91 0.7 N 7 11 4 6 1013.6 - 0.0
23/03:00am 8.7 6.3 6.8 88 0.9 NNW 9 11 5 6 1013.5 1013.6 0.0
23/02:30am 8.8 5.5 6.6 86 1.0 NW 13 15 7 8 1013.5 - 0.0
23/02:00am 8.0 4.9 5.6 85 1.1 N 11 15 6 8 1013.7 - 0.0
23/01:30am 6.6 3.5 5.4 92 0.5 NNE 11 13 6 7 1013.5 - 0.0
23/01:00am 6.9 3.5 5.7 92 0.5 NNW 13 15 7 8 1013.6 - 0.0
23/12:30am 6.4 2.7 4.7 89 0.7 N 13 19 7 10 1013.6 - 0.0
23/12:00am 7.6 4.5 5.7 88 0.9 N 11 13 6 7 1013.7 1013.8 0.0
 
Date/Time
EST
Temp
°C
App
Temp
°C
Dew
Point
Rel
Hum
%
Delta-T
°C
Wind Press
QNH
hPa
Press
MSL
hPa
Rain
since 9 am
mm
Dir
 
Spd
km/h
Gust
km/h
Spd
kts
Gust
kts
22/11:30pm 7.9 5.3 6.2 89 0.8 N 9 11 5 6 1013.7 - 0.0
22/11:00pm 7.7 5.1 6.0 89 0.8 N 9 13 5 7 1013.8 - 0.0
22/10:30pm 7.9 5.6 5.5 85 1.1 N 7 13 4 7 1013.7 - 0.0
22/10:00pm 9.3 6.4 6.4 82 1.3 N 11 20 6 11 1013.5 - 0.0
22/09:30pm 10.4 7.1 6.4 76 1.9 NNW 13 20 7 11 1013.3 - 0.0
22/09:00pm 11.7 7.6 6.4 70 2.5 NNW 17 24 9 13 1012.9 1013.0 0.0
22/08:30pm 12.1 9.0 7.2 72 2.4 NNW 13 22 7 12 1012.4 - 0.0
22/08:00pm 12.7 9.2 7.0 68 2.8 NW 15 30 8 16 1012.1 - 0.0
22/07:30pm 12.8 8.9 7.3 69 2.7 NNW 17 30 9 16 1012.0 - 0.0
22/07:00pm 13.0 9.1 7.0 67 2.9 NW 17 28 9 15 1011.6 - 0.0
22/06:30pm 13.4 9.7 6.3 62 3.4 NW 15 32 8 17 1011.2 - 0.0
22/06:00pm 13.3 9.5 5.9 61 3.5 NW 15 26 8 14 1010.6 1010.6 0.0

Other Formats:

Comma delimited format used in spreadsheet applications
http://www.bom.gov.au/fwo/IDT60801/IDT60801.94957.axf

JavaScript Object Notation format (JSON) in row-major order
http://www.bom.gov.au/fwo/IDT60801/IDT60801.94957.json